EWG3LX EDDP-LEMH
Flight info
| Callsign | EWG3LX |
|---|---|
| Flight time | 1h 55m |
| Altitude | 36000 |
| Route | NEVKO2N NEVKO Y225 OKKOC Z94 VAGAB Y231 AMOSA DCT BEMBO DCT LANOK DCT LAPDI DCT SOPER DCT ODINA DCT TONDA DCT BORDI N736 IVLAM DCT LERMA DCT RUBAS DCT OLNUL DCT CHELY DCT SARGO |
| Aircraft | A321/M-SDE3FGHIRWY/LB1 |
Departure
| Time | 2026-04-22 19:44 |
|---|---|
| Airport | Leipzig/Halle Airport (EDDP) |
Arrival
| Time | 2026-04-22 21:39 |
|---|---|
| Airport | Menorca Airport (LEMH) |
| Time | Latitude | Longitude | Altitude | Speed | Heading |
|---|---|---|---|---|---|
| 2026-04-22 19:05 | 51.41927 | 12.21877 | 436 ft | 0 kts | 15° |
| 2026-04-22 19:28 | 51.41912 | 12.21870 | 436 ft | 4 kts | 15° |
| 2026-04-22 19:29 | 51.41886 | 12.21858 | 436 ft | 4 kts | 15° |
| 2026-04-22 19:29 | 51.41863 | 12.21848 | 436 ft | 2 kts | 15° |
| 2026-04-22 19:29 | 51.41844 | 12.21835 | 431 ft | 4 kts | 72° |
| 2026-04-22 19:29 | 51.41846 | 12.21799 | 436 ft | 4 kts | 105° |
| 2026-04-22 19:30 | 51.41849 | 12.21780 | 423 ft | 0 kts | 105° |
| 2026-04-22 19:33 | 51.41848 | 12.21783 | 425 ft | 2 kts | 105° |
| 2026-04-22 19:34 | 51.41831 | 12.21885 | 429 ft | 15 kts | 105° |
| 2026-04-22 19:34 | 51.41802 | 12.22053 | 428 ft | 16 kts | 105° |
| 2026-04-22 19:34 | 51.41772 | 12.22230 | 427 ft | 17 kts | 105° |
| 2026-04-22 19:34 | 51.41741 | 12.22411 | 435 ft | 16 kts | 105° |
| 2026-04-22 19:35 | 51.41713 | 12.22575 | 442 ft | 15 kts | 105° |
| 2026-04-22 19:35 | 51.41683 | 12.22748 | 450 ft | 17 kts | 105° |
| 2026-04-22 19:35 | 51.41650 | 12.22939 | 457 ft | 19 kts | 105° |
| 2026-04-22 19:35 | 51.41614 | 12.23152 | 464 ft | 21 kts | 105° |
| 2026-04-22 19:36 | 51.41604 | 12.23400 | 466 ft | 25 kts | 86° |
| 2026-04-22 19:36 | 51.41616 | 12.23676 | 471 ft | 24 kts | 85° |
| 2026-04-22 19:36 | 51.41629 | 12.23937 | 473 ft | 23 kts | 85° |
| 2026-04-22 19:36 | 51.41640 | 12.24185 | 477 ft | 22 kts | 85° |
| 2026-04-22 19:37 | 51.41652 | 12.24429 | 472 ft | 23 kts | 85° |
| 2026-04-22 19:37 | 51.41664 | 12.24681 | 475 ft | 23 kts | 85° |
| 2026-04-22 19:37 | 51.41768 | 12.24818 | 478 ft | 20 kts | 15° |
| 2026-04-22 19:37 | 51.41887 | 12.24861 | 486 ft | 14 kts | 13° |
| 2026-04-22 19:38 | 51.41984 | 12.24898 | 491 ft | 15 kts | 13° |
| 2026-04-22 19:38 | 51.42086 | 12.24937 | 491 ft | 15 kts | 13° |
| 2026-04-22 19:38 | 51.42194 | 12.24978 | 486 ft | 17 kts | 13° |
| 2026-04-22 19:38 | 51.42328 | 12.25029 | 480 ft | 22 kts | 13° |
| 2026-04-22 19:39 | 51.42491 | 12.25090 | 470 ft | 26 kts | 12° |
| 2026-04-22 19:39 | 51.42684 | 12.25167 | 463 ft | 30 kts | 13° |
| 2026-04-22 19:39 | 51.42892 | 12.25242 | 451 ft | 31 kts | 12° |
| 2026-04-22 19:39 | 51.42989 | 12.25344 | 450 ft | 16 kts | 81° |
| 2026-04-22 19:40 | 51.42998 | 12.25525 | 451 ft | 16 kts | 85° |
| 2026-04-22 19:40 | 51.43007 | 12.25711 | 451 ft | 18 kts | 85° |
| 2026-04-22 19:40 | 51.43016 | 12.25905 | 453 ft | 17 kts | 85° |
| 2026-04-22 19:40 | 51.43026 | 12.26108 | 452 ft | 19 kts | 85° |
| 2026-04-22 19:41 | 51.43035 | 12.26324 | 454 ft | 19 kts | 85° |
| 2026-04-22 19:41 | 51.43046 | 12.26533 | 455 ft | 19 kts | 85° |
| 2026-04-22 19:41 | 51.43069 | 12.26727 | 457 ft | 16 kts | 50° |
| 2026-04-22 19:41 | 51.43167 | 12.26745 | 458 ft | 15 kts | 355° |
| 2026-04-22 19:42 | 51.43239 | 12.26734 | 457 ft | 10 kts | 353° |
| 2026-04-22 19:42 | 51.43317 | 12.26678 | 454 ft | 14 kts | 321° |
| 2026-04-22 19:42 | 51.43357 | 12.26540 | 453 ft | 15 kts | 265° |
| 2026-04-22 19:42 | 51.43356 | 12.26515 | 453 ft | 0 kts | 265° |
| 2026-04-22 19:43 | 51.43352 | 12.26440 | 453 ft | 28 kts | 265° |
| 2026-04-22 19:43 | 51.43318 | 12.25709 | 449 ft | 101 kts | 265° |
| 2026-04-22 19:43 | 51.43254 | 12.24278 | 442 ft | 158 kts | 266° |
| 2026-04-22 19:44 | 51.43156 | 12.22373 | 814 ft | 175 kts | 267° |
| 2026-04-22 19:44 | 51.43024 | 12.20401 | 1480 ft | 181 kts | 267° |
| 2026-04-22 19:44 | 51.42876 | 12.18375 | 2052 ft | 187 kts | 266° |
| 2026-04-22 19:44 | 51.42743 | 12.16203 | 2371 ft | 206 kts | 268° |
| 2026-04-22 19:45 | 51.42609 | 12.13798 | 2629 ft | 229 kts | 268° |
| 2026-04-22 19:45 | 51.42479 | 12.11113 | 2976 ft | 250 kts | 269° |
| 2026-04-22 19:45 | 51.42380 | 12.08289 | 3719 ft | 255 kts | 270° |
| 2026-04-22 19:45 | 51.42284 | 12.05425 | 4489 ft | 261 kts | 269° |
| 2026-04-22 19:46 | 51.42176 | 12.02488 | 5230 ft | 267 kts | 269° |
| 2026-04-22 19:46 | 51.42038 | 11.99495 | 5975 ft | 272 kts | 264° |
| 2026-04-22 19:46 | 51.41485 | 11.96572 | 6682 ft | 279 kts | 245° |
| 2026-04-22 19:46 | 51.40351 | 11.94021 | 7349 ft | 286 kts | 225° |
| 2026-04-22 19:47 | 51.38739 | 11.92129 | 8007 ft | 291 kts | 210° |
| 2026-04-22 19:47 | 51.36989 | 11.90535 | 8688 ft | 295 kts | 210° |
| 2026-04-22 19:47 | 51.35782 | 11.89432 | 9150 ft | 297 kts | 210° |
| 2026-04-22 19:47 | 51.33381 | 11.87231 | 10074 ft | 303 kts | 210° |
| 2026-04-22 19:48 | 51.31513 | 11.85508 | 10571 ft | 314 kts | 210° |
| 2026-04-22 19:48 | 51.29558 | 11.83698 | 10719 ft | 336 kts | 210° |
| 2026-04-22 19:48 | 51.27479 | 11.81769 | 10914 ft | 353 kts | 210° |
| 2026-04-22 19:48 | 51.25353 | 11.79727 | 11433 ft | 359 kts | 215° |
| 2026-04-22 19:49 | 51.23361 | 11.77288 | 12025 ft | 363 kts | 218° |
| 2026-04-22 19:49 | 51.21368 | 11.74789 | 12638 ft | 366 kts | 218° |
| 2026-04-22 19:49 | 51.19353 | 11.72273 | 13228 ft | 370 kts | 218° |
| 2026-04-22 19:49 | 51.17343 | 11.69769 | 13818 ft | 374 kts | 218° |
| 2026-04-22 19:50 | 51.15278 | 11.67200 | 14394 ft | 377 kts | 218° |
| 2026-04-22 19:50 | 51.13201 | 11.64616 | 14933 ft | 380 kts | 218° |
| 2026-04-22 19:50 | 51.11112 | 11.62019 | 15472 ft | 383 kts | 218° |
| 2026-04-22 19:50 | 51.09003 | 11.59399 | 16025 ft | 386 kts | 218° |
| 2026-04-22 19:51 | 51.06877 | 11.56762 | 16568 ft | 389 kts | 217° |
| 2026-04-22 19:51 | 51.04728 | 11.54102 | 17110 ft | 392 kts | 217° |
| 2026-04-22 19:51 | 51.02572 | 11.51435 | 17638 ft | 395 kts | 217° |
| 2026-04-22 19:51 | 51.00396 | 11.48747 | 18167 ft | 398 kts | 217° |
| 2026-04-22 19:52 | 50.98202 | 11.46042 | 18692 ft | 401 kts | 217° |
| 2026-04-22 19:52 | 50.95985 | 11.43316 | 19146 ft | 404 kts | 217° |
| 2026-04-22 19:52 | 50.93764 | 11.40586 | 19594 ft | 406 kts | 217° |
| 2026-04-22 19:52 | 50.91522 | 11.37830 | 20042 ft | 409 kts | 217° |
| 2026-04-22 19:53 | 50.89356 | 11.34884 | 20472 ft | 412 kts | 225° |
| 2026-04-22 19:53 | 50.87517 | 11.31372 | 20905 ft | 415 kts | 235° |
| 2026-04-22 19:53 | 50.86418 | 11.28901 | 21174 ft | 416 kts | 231° |
| 2026-04-22 19:53 | 50.83507 | 11.24990 | 21687 ft | 417 kts | 205° |
| 2026-04-22 19:54 | 50.80810 | 11.23336 | 22107 ft | 417 kts | 195° |
| 2026-04-22 19:54 | 50.78035 | 11.21970 | 22532 ft | 419 kts | 194° |
| 2026-04-22 19:54 | 50.75240 | 11.20611 | 22951 ft | 421 kts | 194° |
| 2026-04-22 19:54 | 50.72422 | 11.19242 | 23379 ft | 424 kts | 194° |
| 2026-04-22 19:55 | 50.69595 | 11.17868 | 23789 ft | 426 kts | 194° |
| 2026-04-22 19:55 | 50.66759 | 11.16487 | 24143 ft | 429 kts | 194° |
| 2026-04-22 19:55 | 50.63903 | 11.15094 | 24494 ft | 431 kts | 194° |
| 2026-04-22 19:55 | 50.61027 | 11.13689 | 24855 ft | 433 kts | 194° |
| 2026-04-22 19:56 | 50.58152 | 11.12283 | 25215 ft | 434 kts | 194° |
| 2026-04-22 19:56 | 50.55216 | 11.11199 | 25552 ft | 434 kts | 188° |
| 2026-04-22 19:56 | 50.52239 | 11.10291 | 25895 ft | 436 kts | 187° |
| 2026-04-22 19:56 | 50.49260 | 11.09411 | 26223 ft | 437 kts | 187° |
| 2026-04-22 19:57 | 50.46257 | 11.08541 | 26318 ft | 438 kts | 187° |
| 2026-04-22 19:57 | 50.43303 | 11.07690 | 26327 ft | 438 kts | 187° |
| 2026-04-22 19:57 | 50.40273 | 11.06817 | 26326 ft | 437 kts | 187° |
| 2026-04-22 19:57 | 50.37313 | 11.05961 | 26326 ft | 438 kts | 187° |
| 2026-04-22 19:58 | 50.34313 | 11.05086 | 26492 ft | 440 kts | 188° |
| 2026-04-22 19:58 | 50.31297 | 11.04202 | 26824 ft | 442 kts | 188° |
| 2026-04-22 19:58 | 50.28265 | 11.03317 | 27151 ft | 444 kts | 187° |
| 2026-04-22 19:58 | 50.25226 | 11.02431 | 27484 ft | 446 kts | 187° |
| 2026-04-22 19:59 | 50.22165 | 11.01541 | 27814 ft | 448 kts | 187° |
| 2026-04-22 20:00 | 50.03497 | 10.96123 | 29645 ft | 462 kts | 188° |
| 2026-04-22 20:00 | 50.00331 | 10.95209 | 29950 ft | 464 kts | 188° |
| 2026-04-22 20:01 | 49.97152 | 10.94295 | 30218 ft | 465 kts | 188° |
| 2026-04-22 20:01 | 49.93960 | 10.93378 | 30477 ft | 467 kts | 188° |
| 2026-04-22 20:01 | 49.90756 | 10.92459 | 30684 ft | 469 kts | 188° |
| 2026-04-22 20:01 | 49.88623 | 10.91849 | 30795 ft | 471 kts | 188° |
| 2026-04-22 20:02 | 49.85387 | 10.90927 | 30958 ft | 474 kts | 188° |
| 2026-04-22 20:02 | 49.82137 | 10.90000 | 31156 ft | 475 kts | 188° |
| 2026-04-22 20:02 | 49.77825 | 10.88771 | 31488 ft | 475 kts | 188° |
| 2026-04-22 20:02 | 49.74580 | 10.87845 | 31741 ft | 475 kts | 189° |
| 2026-04-22 20:03 | 49.72378 | 10.87217 | 31908 ft | 475 kts | 189° |
| 2026-04-22 20:03 | 49.69125 | 10.86287 | 32155 ft | 475 kts | 189° |
| 2026-04-22 20:03 | 49.65869 | 10.85358 | 32383 ft | 476 kts | 189° |
| 2026-04-22 20:03 | 49.62613 | 10.84437 | 32598 ft | 477 kts | 189° |
| 2026-04-22 20:04 | 49.59347 | 10.83518 | 32854 ft | 477 kts | 189° |
| 2026-04-22 20:04 | 49.56082 | 10.82600 | 33106 ft | 477 kts | 189° |
| 2026-04-22 20:04 | 49.52825 | 10.81631 | 33344 ft | 477 kts | 193° |
| 2026-04-22 20:04 | 49.49661 | 10.80092 | 33567 ft | 478 kts | 202° |
| 2026-04-22 20:05 | 49.46676 | 10.77972 | 33789 ft | 478 kts | 206° |
| 2026-04-22 20:05 | 49.43683 | 10.75740 | 34023 ft | 478 kts | 206° |
| 2026-04-22 20:05 | 49.40690 | 10.73515 | 34247 ft | 478 kts | 206° |
| 2026-04-22 20:05 | 49.37695 | 10.71298 | 34449 ft | 478 kts | 206° |
| 2026-04-22 20:06 | 49.34699 | 10.69089 | 34633 ft | 478 kts | 206° |
| 2026-04-22 20:06 | 49.31695 | 10.66881 | 34820 ft | 477 kts | 206° |
| 2026-04-22 20:06 | 49.28698 | 10.64683 | 35011 ft | 477 kts | 206° |
| 2026-04-22 20:06 | 49.25693 | 10.62519 | 35194 ft | 477 kts | 202° |
| 2026-04-22 20:07 | 49.22606 | 10.60672 | 35365 ft | 478 kts | 201° |
| 2026-04-22 20:07 | 49.19495 | 10.58878 | 35563 ft | 478 kts | 201° |
| 2026-04-22 20:07 | 49.16384 | 10.57090 | 35741 ft | 478 kts | 201° |
| 2026-04-22 20:07 | 49.13274 | 10.55304 | 35923 ft | 477 kts | 201° |
| 2026-04-22 20:08 | 49.10164 | 10.53521 | 36098 ft | 477 kts | 201° |
| 2026-04-22 20:08 | 49.07091 | 10.51761 | 36264 ft | 477 kts | 201° |
| 2026-04-22 20:08 | 49.03973 | 10.49977 | 36305 ft | 479 kts | 201° |
| 2026-04-22 20:09 | 48.97726 | 10.46465 | 36310 ft | 478 kts | 201° |
| 2026-04-22 20:09 | 48.91485 | 10.42975 | 36306 ft | 478 kts | 201° |
| 2026-04-22 20:10 | 48.85242 | 10.39490 | 36299 ft | 478 kts | 201° |
| 2026-04-22 20:10 | 48.78993 | 10.36025 | 36290 ft | 478 kts | 201° |
| 2026-04-22 20:11 | 48.72746 | 10.32555 | 36292 ft | 478 kts | 202° |
| 2026-04-22 20:11 | 48.66623 | 10.28647 | 36293 ft | 477 kts | 206° |
| 2026-04-22 20:12 | 48.60595 | 10.24451 | 36285 ft | 477 kts | 206° |
| 2026-04-22 20:12 | 48.54555 | 10.20311 | 36288 ft | 477 kts | 206° |
| 2026-04-22 20:13 | 48.48471 | 10.16282 | 36287 ft | 477 kts | 205° |
| 2026-04-22 20:13 | 48.42419 | 10.12318 | 36281 ft | 477 kts | 205° |
| 2026-04-22 20:14 | 48.36341 | 10.08331 | 36273 ft | 477 kts | 205° |
| 2026-04-22 20:14 | 48.30263 | 10.04330 | 36268 ft | 477 kts | 205° |
| 2026-04-22 20:15 | 48.24182 | 10.00341 | 36268 ft | 477 kts | 205° |
| 2026-04-22 20:15 | 48.18100 | 9.96366 | 36270 ft | 477 kts | 205° |
| 2026-04-22 20:16 | 48.12021 | 9.92401 | 36271 ft | 476 kts | 205° |
| 2026-04-22 20:16 | 48.05938 | 9.88449 | 36266 ft | 476 kts | 205° |
| 2026-04-22 20:17 | 47.99864 | 9.84515 | 36255 ft | 476 kts | 206° |
| 2026-04-22 20:17 | 47.93785 | 9.80577 | 36248 ft | 476 kts | 206° |
| 2026-04-22 20:18 | 47.87750 | 9.76694 | 36238 ft | 475 kts | 206° |
| 2026-04-22 20:18 | 47.81680 | 9.72789 | 36228 ft | 475 kts | 206° |
| 2026-04-22 20:19 | 47.75623 | 9.68896 | 36236 ft | 474 kts | 206° |
| 2026-04-22 20:19 | 47.69557 | 9.65007 | 36245 ft | 474 kts | 206° |
| 2026-04-22 20:20 | 47.63500 | 9.61133 | 36249 ft | 474 kts | 206° |
| 2026-04-22 20:20 | 47.57445 | 9.57270 | 36197 ft | 473 kts | 207° |
| 2026-04-22 20:21 | 47.51407 | 9.53439 | 36215 ft | 473 kts | 207° |
| 2026-04-22 20:21 | 47.45352 | 9.49597 | 36214 ft | 473 kts | 207° |
| 2026-04-22 20:22 | 47.39302 | 9.45774 | 36198 ft | 473 kts | 207° |
| 2026-04-22 20:22 | 47.33248 | 9.41967 | 36206 ft | 473 kts | 207° |
| 2026-04-22 20:23 | 47.27202 | 9.38157 | 36201 ft | 473 kts | 207° |
| 2026-04-22 20:23 | 47.21188 | 9.34379 | 36162 ft | 472 kts | 207° |
| 2026-04-22 20:24 | 47.15139 | 9.30593 | 36172 ft | 473 kts | 207° |
| 2026-04-22 20:24 | 47.09096 | 9.26811 | 36166 ft | 472 kts | 207° |
| 2026-04-22 20:25 | 47.03047 | 9.23048 | 36169 ft | 472 kts | 207° |
| 2026-04-22 20:25 | 46.97005 | 9.19295 | 36159 ft | 471 kts | 207° |
| 2026-04-22 20:26 | 46.90956 | 9.15549 | 36156 ft | 471 kts | 207° |
| 2026-04-22 20:26 | 46.84915 | 9.11814 | 36153 ft | 471 kts | 207° |
| 2026-04-22 20:27 | 46.78887 | 9.08088 | 36142 ft | 470 kts | 208° |
| 2026-04-22 20:27 | 46.72863 | 9.04387 | 36145 ft | 470 kts | 208° |
| 2026-04-22 20:28 | 46.66837 | 9.00691 | 36146 ft | 470 kts | 208° |
| 2026-04-22 20:28 | 46.60818 | 8.97003 | 36121 ft | 469 kts | 208° |
| 2026-04-22 20:29 | 46.54847 | 8.93353 | 36131 ft | 469 kts | 208° |
| 2026-04-22 20:29 | 46.48836 | 8.89689 | 36140 ft | 468 kts | 208° |
| 2026-04-22 20:30 | 46.42815 | 8.86032 | 36129 ft | 468 kts | 209° |
| 2026-04-22 20:30 | 46.36794 | 8.82373 | 36143 ft | 469 kts | 209° |
| 2026-04-22 20:31 | 46.30776 | 8.78725 | 36118 ft | 467 kts | 209° |
| 2026-04-22 20:31 | 46.24771 | 8.75106 | 36143 ft | 469 kts | 208° |
| 2026-04-22 20:32 | 46.18738 | 8.71488 | 36134 ft | 469 kts | 210° |
| 2026-04-22 20:32 | 46.12710 | 8.67869 | 36148 ft | 469 kts | 209° |
| 2026-04-22 20:33 | 46.06525 | 8.64750 | 36146 ft | 473 kts | 203° |
| 2026-04-22 20:33 | 46.00230 | 8.61953 | 36142 ft | 474 kts | 204° |
| 2026-04-22 20:34 | 45.93963 | 8.59177 | 36148 ft | 474 kts | 204° |
| 2026-04-22 20:34 | 45.87653 | 8.56395 | 36158 ft | 474 kts | 204° |
| 2026-04-22 20:35 | 45.81337 | 8.53597 | 36140 ft | 474 kts | 204° |
| 2026-04-22 20:35 | 45.75031 | 8.50812 | 36152 ft | 474 kts | 204° |
| 2026-04-22 20:36 | 45.68713 | 8.48051 | 36175 ft | 475 kts | 204° |
| 2026-04-22 20:36 | 45.62388 | 8.45291 | 36173 ft | 474 kts | 204° |
| 2026-04-22 20:37 | 45.56077 | 8.42530 | 36174 ft | 474 kts | 204° |
| 2026-04-22 20:37 | 45.49769 | 8.39778 | 36176 ft | 474 kts | 204° |
| 2026-04-22 20:38 | 45.43500 | 8.37048 | 36161 ft | 473 kts | 204° |
| 2026-04-22 20:38 | 45.37207 | 8.34317 | 36174 ft | 473 kts | 204° |
| 2026-04-22 20:39 | 45.30911 | 8.31596 | 36171 ft | 472 kts | 204° |
| 2026-04-22 20:39 | 45.24616 | 8.28874 | 36163 ft | 472 kts | 204° |
| 2026-04-22 20:40 | 45.18340 | 8.26161 | 36185 ft | 471 kts | 204° |
| 2026-04-22 20:40 | 45.12067 | 8.23463 | 36179 ft | 471 kts | 204° |
| 2026-04-22 20:41 | 45.05809 | 8.20742 | 36170 ft | 469 kts | 205° |
| 2026-04-22 20:41 | 44.99596 | 8.17944 | 36178 ft | 468 kts | 205° |
| 2026-04-22 20:42 | 44.93399 | 8.15143 | 36181 ft | 467 kts | 205° |
| 2026-04-22 20:42 | 44.87204 | 8.12382 | 36167 ft | 466 kts | 204° |
| 2026-04-22 20:43 | 44.81063 | 8.09662 | 36177 ft | 465 kts | 204° |
| 2026-04-22 20:43 | 44.74891 | 8.06932 | 36177 ft | 465 kts | 204° |
| 2026-04-22 20:44 | 44.68724 | 8.04203 | 36178 ft | 464 kts | 204° |
| 2026-04-22 20:44 | 44.62560 | 8.01474 | 36188 ft | 463 kts | 204° |
| 2026-04-22 20:45 | 44.56419 | 7.98765 | 36189 ft | 463 kts | 204° |
| 2026-04-22 20:45 | 44.50272 | 7.96074 | 36169 ft | 462 kts | 204° |
| 2026-04-22 20:46 | 44.41047 | 7.92028 | 36180 ft | 463 kts | 204° |
| 2026-04-22 20:46 | 44.34937 | 7.89361 | 36184 ft | 463 kts | 203° |
| 2026-04-22 20:47 | 44.28771 | 7.86675 | 36175 ft | 464 kts | 203° |
| 2026-04-22 20:47 | 44.23611 | 7.84429 | 36170 ft | 464 kts | 203° |
| 2026-04-22 20:48 | 44.17440 | 7.81751 | 36152 ft | 463 kts | 204° |
| 2026-04-22 20:48 | 44.11322 | 7.79099 | 36142 ft | 463 kts | 203° |
| 2026-04-22 20:49 | 44.05157 | 7.76435 | 36153 ft | 463 kts | 205° |
| 2026-04-22 20:49 | 43.99506 | 7.72538 | 36155 ft | 447 kts | 221° |
| 2026-04-22 20:50 | 43.94388 | 7.67613 | 36139 ft | 448 kts | 221° |
| 2026-04-22 20:50 | 43.89246 | 7.62708 | 36154 ft | 448 kts | 221° |
| 2026-04-22 20:51 | 43.84104 | 7.57819 | 36136 ft | 448 kts | 220° |
| 2026-04-22 20:51 | 43.78934 | 7.52960 | 36128 ft | 452 kts | 217° |
| 2026-04-22 20:52 | 43.73372 | 7.48791 | 36118 ft | 455 kts | 214° |
| 2026-04-22 20:52 | 43.67775 | 7.44672 | 36129 ft | 456 kts | 214° |
| 2026-04-22 20:53 | 43.62164 | 7.40541 | 36141 ft | 457 kts | 214° |
| 2026-04-22 20:53 | 43.56551 | 7.36414 | 36120 ft | 457 kts | 214° |
| 2026-04-22 20:54 | 43.50935 | 7.32291 | 36132 ft | 457 kts | 214° |
| 2026-04-22 20:54 | 43.45352 | 7.28209 | 36141 ft | 457 kts | 214° |
| 2026-04-22 20:55 | 43.39720 | 7.24102 | 36129 ft | 457 kts | 213° |
| 2026-04-22 20:55 | 43.34092 | 7.19995 | 36137 ft | 457 kts | 213° |
| 2026-04-22 20:56 | 43.28469 | 7.15912 | 36139 ft | 457 kts | 213° |
| 2026-04-22 20:56 | 43.22848 | 7.11835 | 36140 ft | 457 kts | 213° |
| 2026-04-22 20:57 | 43.17224 | 7.07765 | 36130 ft | 457 kts | 213° |
| 2026-04-22 20:57 | 43.11528 | 7.03868 | 36129 ft | 459 kts | 211° |
| 2026-04-22 20:58 | 43.05720 | 7.00192 | 36134 ft | 460 kts | 210° |
| 2026-04-22 20:58 | 42.99939 | 6.96550 | 36118 ft | 460 kts | 210° |
| 2026-04-22 20:59 | 42.94142 | 6.92836 | 36123 ft | 460 kts | 210° |
| 2026-04-22 20:59 | 42.88350 | 6.89104 | 36123 ft | 460 kts | 210° |
| 2026-04-22 21:00 | 42.82554 | 6.85374 | 36127 ft | 461 kts | 210° |
| 2026-04-22 21:00 | 42.76739 | 6.81662 | 36093 ft | 461 kts | 210° |
| 2026-04-22 21:01 | 42.70919 | 6.77953 | 36101 ft | 462 kts | 210° |
| 2026-04-22 21:01 | 42.65085 | 6.74239 | 36100 ft | 463 kts | 210° |
| 2026-04-22 21:02 | 42.59249 | 6.70528 | 36109 ft | 463 kts | 210° |
| 2026-04-22 21:02 | 42.53411 | 6.66821 | 36112 ft | 463 kts | 210° |
| 2026-04-22 21:03 | 42.47611 | 6.63144 | 36121 ft | 463 kts | 210° |
| 2026-04-22 21:03 | 42.41757 | 6.59450 | 36097 ft | 463 kts | 212° |
| 2026-04-22 21:04 | 42.36568 | 6.54564 | 36110 ft | 449 kts | 230° |
| 2026-04-22 21:04 | 42.32583 | 6.48180 | 36111 ft | 443 kts | 237° |
| 2026-04-22 21:05 | 42.28744 | 6.41650 | 36092 ft | 444 kts | 237° |
| 2026-04-22 21:05 | 42.24879 | 6.35146 | 36096 ft | 445 kts | 237° |
| 2026-04-22 21:06 | 42.21008 | 6.28630 | 36092 ft | 445 kts | 237° |
| 2026-04-22 21:06 | 42.17141 | 6.22104 | 36096 ft | 445 kts | 237° |
| 2026-04-22 21:07 | 42.13292 | 6.15619 | 36099 ft | 446 kts | 237° |
| 2026-04-22 21:07 | 42.09411 | 6.09103 | 36101 ft | 446 kts | 237° |
| 2026-04-22 21:08 | 42.05525 | 6.02596 | 36096 ft | 446 kts | 237° |
| 2026-04-22 21:08 | 42.01631 | 5.96103 | 36093 ft | 446 kts | 237° |
| 2026-04-22 21:09 | 41.97730 | 5.89616 | 36098 ft | 446 kts | 237° |
| 2026-04-22 21:09 | 41.93828 | 5.83122 | 36095 ft | 446 kts | 237° |
| 2026-04-22 21:10 | 41.89949 | 5.76681 | 36102 ft | 446 kts | 237° |
| 2026-04-22 21:10 | 41.86049 | 5.70202 | 36072 ft | 446 kts | 236° |
| 2026-04-22 21:11 | 41.82140 | 5.63744 | 36085 ft | 446 kts | 236° |
| 2026-04-22 21:11 | 41.78228 | 5.57298 | 36090 ft | 446 kts | 236° |
| 2026-04-22 21:12 | 41.74311 | 5.50861 | 36094 ft | 446 kts | 236° |
| 2026-04-22 21:12 | 41.70390 | 5.44433 | 36096 ft | 446 kts | 236° |
| 2026-04-22 21:13 | 41.66476 | 5.38015 | 36090 ft | 446 kts | 236° |
| 2026-04-22 21:13 | 41.62413 | 5.31727 | 36071 ft | 447 kts | 233° |
| 2026-04-22 21:14 | 41.60325 | 5.28637 | 35882 ft | 447 kts | 233° |
| 2026-04-22 21:14 | 41.58230 | 5.25568 | 35444 ft | 446 kts | 229° |
| 2026-04-22 21:14 | 41.54071 | 5.19444 | 35133 ft | 443 kts | 231° |
| 2026-04-22 21:15 | 41.52040 | 5.16426 | 34873 ft | 431 kts | 231° |
| 2026-04-22 21:15 | 41.50067 | 5.13478 | 34618 ft | 421 kts | 232° |
| 2026-04-22 21:15 | 41.48134 | 5.10580 | 34385 ft | 416 kts | 232° |
| 2026-04-22 21:15 | 41.46228 | 5.07718 | 34054 ft | 410 kts | 232° |
| 2026-04-22 21:16 | 41.44341 | 5.04886 | 33546 ft | 406 kts | 232° |
| 2026-04-22 21:16 | 41.42472 | 5.02094 | 33123 ft | 401 kts | 232° |
| 2026-04-22 21:16 | 41.40622 | 4.99346 | 32687 ft | 396 kts | 232° |
| 2026-04-22 21:16 | 41.38795 | 4.96633 | 32241 ft | 391 kts | 232° |
| 2026-04-22 21:17 | 41.36989 | 4.93951 | 31803 ft | 386 kts | 231° |
| 2026-04-22 21:17 | 41.35205 | 4.91303 | 31382 ft | 382 kts | 231° |
| 2026-04-22 21:17 | 41.33440 | 4.88687 | 30954 ft | 378 kts | 231° |
| 2026-04-22 21:17 | 41.31711 | 4.86131 | 30539 ft | 374 kts | 231° |
| 2026-04-22 21:18 | 41.29980 | 4.83568 | 30126 ft | 370 kts | 231° |
| 2026-04-22 21:18 | 41.28267 | 4.81030 | 29689 ft | 367 kts | 231° |
| 2026-04-22 21:18 | 41.26572 | 4.78527 | 29305 ft | 362 kts | 231° |
| 2026-04-22 21:18 | 41.24902 | 4.76067 | 28898 ft | 357 kts | 231° |
| 2026-04-22 21:19 | 41.23252 | 4.73641 | 28540 ft | 351 kts | 231° |
| 2026-04-22 21:19 | 41.21613 | 4.71234 | 28162 ft | 350 kts | 231° |
| 2026-04-22 21:19 | 41.19991 | 4.68848 | 27798 ft | 348 kts | 231° |
| 2026-04-22 21:19 | 41.18376 | 4.66467 | 27438 ft | 346 kts | 231° |
| 2026-04-22 21:20 | 41.16769 | 4.64100 | 27083 ft | 344 kts | 231° |
| 2026-04-22 21:20 | 41.15169 | 4.61748 | 26732 ft | 342 kts | 231° |
| 2026-04-22 21:20 | 41.13576 | 4.59409 | 26397 ft | 341 kts | 231° |
| 2026-04-22 21:20 | 41.11985 | 4.57078 | 26045 ft | 339 kts | 231° |
| 2026-04-22 21:21 | 41.10410 | 4.54773 | 25688 ft | 337 kts | 231° |
| 2026-04-22 21:21 | 41.08839 | 4.52476 | 25338 ft | 335 kts | 231° |
| 2026-04-22 21:21 | 41.07173 | 4.50301 | 24987 ft | 337 kts | 223° |
| 2026-04-22 21:21 | 41.05270 | 4.48481 | 24605 ft | 337 kts | 218° |
| 2026-04-22 21:22 | 41.03328 | 4.46743 | 24225 ft | 336 kts | 218° |
| 2026-04-22 21:22 | 41.01394 | 4.45008 | 23852 ft | 335 kts | 218° |
| 2026-04-22 21:22 | 40.99470 | 4.43276 | 23442 ft | 334 kts | 218° |
| 2026-04-22 21:22 | 40.97555 | 4.41554 | 23022 ft | 332 kts | 218° |
| 2026-04-22 21:23 | 40.95651 | 4.39844 | 22631 ft | 330 kts | 218° |
| 2026-04-22 21:23 | 40.93761 | 4.38150 | 22248 ft | 328 kts | 218° |
| 2026-04-22 21:23 | 40.91879 | 4.36465 | 21846 ft | 326 kts | 218° |
| 2026-04-22 21:23 | 40.90009 | 4.34789 | 21453 ft | 324 kts | 218° |
| 2026-04-22 21:24 | 40.88173 | 4.33143 | 21069 ft | 322 kts | 218° |
| 2026-04-22 21:24 | 40.86304 | 4.31469 | 20673 ft | 320 kts | 218° |
| 2026-04-22 21:24 | 40.84491 | 4.29843 | 20292 ft | 318 kts | 218° |
| 2026-04-22 21:24 | 40.82665 | 4.28211 | 19954 ft | 316 kts | 218° |
| 2026-04-22 21:25 | 40.80851 | 4.26590 | 19518 ft | 314 kts | 218° |
| 2026-04-22 21:25 | 40.79044 | 4.24976 | 19130 ft | 312 kts | 218° |
| 2026-04-22 21:25 | 40.77250 | 4.23377 | 18752 ft | 310 kts | 218° |
| 2026-04-22 21:25 | 40.75469 | 4.21793 | 18371 ft | 309 kts | 219° |
| 2026-04-22 21:26 | 40.73694 | 4.20213 | 17956 ft | 307 kts | 219° |
| 2026-04-22 21:26 | 40.71927 | 4.18639 | 17570 ft | 305 kts | 218° |
| 2026-04-22 21:26 | 40.70174 | 4.17079 | 17191 ft | 303 kts | 218° |
| 2026-04-22 21:26 | 40.68386 | 4.15601 | 16594 ft | 311 kts | 208° |
| 2026-04-22 21:27 | 40.66229 | 4.14923 | 15741 ft | 331 kts | 184° |
| 2026-04-22 21:27 | 40.63885 | 4.15257 | 14872 ft | 346 kts | 174° |
| 2026-04-22 21:27 | 40.61469 | 4.15765 | 14013 ft | 356 kts | 173° |
| 2026-04-22 21:27 | 40.59039 | 4.16295 | 13451 ft | 347 kts | 173° |
| 2026-04-22 21:28 | 40.56678 | 4.16813 | 12419 ft | 341 kts | 173° |
| 2026-04-22 21:28 | 40.54381 | 4.17310 | 11531 ft | 340 kts | 173° |
| 2026-04-22 21:28 | 40.52045 | 4.17806 | 11017 ft | 338 kts | 173° |
| 2026-04-22 21:28 | 40.49742 | 4.18291 | 10608 ft | 332 kts | 173° |
| 2026-04-22 21:29 | 40.47475 | 4.18763 | 10215 ft | 327 kts | 173° |
| 2026-04-22 21:29 | 40.45242 | 4.19225 | 9817 ft | 323 kts | 173° |
| 2026-04-22 21:29 | 40.43041 | 4.19681 | 9406 ft | 318 kts | 173° |
| 2026-04-22 21:29 | 40.40874 | 4.20133 | 9023 ft | 313 kts | 173° |
| 2026-04-22 21:30 | 40.38743 | 4.20580 | 8638 ft | 306 kts | 172° |
| 2026-04-22 21:30 | 40.36679 | 4.21012 | 8277 ft | 294 kts | 172° |
| 2026-04-22 21:30 | 40.34674 | 4.21428 | 7917 ft | 289 kts | 173° |
| 2026-04-22 21:30 | 40.32725 | 4.21831 | 7579 ft | 278 kts | 172° |
| 2026-04-22 21:31 | 40.30828 | 4.22223 | 7244 ft | 275 kts | 172° |
| 2026-04-22 21:31 | 40.28950 | 4.22613 | 6900 ft | 273 kts | 172° |
| 2026-04-22 21:31 | 40.27082 | 4.23004 | 6575 ft | 271 kts | 172° |
| 2026-04-22 21:31 | 40.25228 | 4.23389 | 6228 ft | 269 kts | 172° |
| 2026-04-22 21:32 | 40.23356 | 4.23773 | 5769 ft | 271 kts | 172° |
| 2026-04-22 21:32 | 40.21512 | 4.24151 | 5500 ft | 266 kts | 172° |
| 2026-04-22 21:32 | 40.19694 | 4.24525 | 5190 ft | 263 kts | 172° |
| 2026-04-22 21:32 | 40.18500 | 4.24772 | 4977 ft | 261 kts | 172° |
| 2026-04-22 21:33 | 40.16716 | 4.25145 | 4641 ft | 259 kts | 172° |
| 2026-04-22 21:33 | 40.14363 | 4.25637 | 4216 ft | 257 kts | 172° |
| 2026-04-22 21:33 | 40.12608 | 4.26002 | 3935 ft | 253 kts | 172° |
| 2026-04-22 21:33 | 40.10876 | 4.26361 | 3861 ft | 254 kts | 172° |
| 2026-04-22 21:34 | 40.09121 | 4.26569 | 3758 ft | 253 kts | 184° |
| 2026-04-22 21:34 | 40.07945 | 4.26395 | 3683 ft | 248 kts | 189° |
| 2026-04-22 21:34 | 40.06309 | 4.26023 | 3583 ft | 236 kts | 190° |
| 2026-04-22 21:34 | 40.04723 | 4.25675 | 3482 ft | 226 kts | 189° |
| 2026-04-22 21:35 | 40.03231 | 4.25365 | 3394 ft | 209 kts | 189° |
| 2026-04-22 21:35 | 40.01833 | 4.25076 | 3186 ft | 197 kts | 189° |
| 2026-04-22 21:35 | 40.00485 | 4.24798 | 2921 ft | 192 kts | 189° |
| 2026-04-22 21:35 | 39.99240 | 4.24541 | 2677 ft | 171 kts | 189° |
| 2026-04-22 21:36 | 39.98133 | 4.24313 | 2466 ft | 152 kts | 189° |
| 2026-04-22 21:36 | 39.97117 | 4.24103 | 2275 ft | 144 kts | 189° |
| 2026-04-22 21:36 | 39.96137 | 4.23901 | 2088 ft | 141 kts | 189° |
| 2026-04-22 21:36 | 39.95170 | 4.23701 | 1907 ft | 140 kts | 189° |
| 2026-04-22 21:37 | 39.93886 | 4.23436 | 1651 ft | 139 kts | 189° |
| 2026-04-22 21:37 | 39.93253 | 4.23315 | 1520 ft | 139 kts | 189° |
| 2026-04-22 21:37 | 39.92297 | 4.23132 | 1372 ft | 139 kts | 189° |
| 2026-04-22 21:37 | 39.91342 | 4.22931 | 1216 ft | 139 kts | 190° |
| 2026-04-22 21:38 | 39.90382 | 4.22721 | 978 ft | 139 kts | 189° |
| 2026-04-22 21:38 | 39.89428 | 4.22510 | 774 ft | 139 kts | 189° |
| 2026-04-22 21:38 | 39.88471 | 4.22316 | 600 ft | 139 kts | 188° |
| 2026-04-22 21:38 | 39.87510 | 4.22125 | 420 ft | 139 kts | 188° |
| 2026-04-22 21:39 | 39.86581 | 4.21931 | 305 ft | 128 kts | 188° |
| 2026-04-22 21:39 | 39.85938 | 4.21798 | 301 ft | 51 kts | 189° |
| 2026-04-22 21:39 | 39.85639 | 4.21758 | 296 ft | 42 kts | 176° |
| 2026-04-22 21:39 | 39.85466 | 4.21824 | 284 ft | 14 kts | 161° |
| 2026-04-22 21:40 | 39.85419 | 4.21908 | 282 ft | 13 kts | 49° |
| 2026-04-22 21:40 | 39.85496 | 4.21946 | 285 ft | 12 kts | 9° |
| 2026-04-22 21:40 | 39.85575 | 4.21962 | 287 ft | 11 kts | 9° |
| 2026-04-22 21:40 | 39.85652 | 4.21978 | 292 ft | 11 kts | 9° |
| 2026-04-22 21:41 | 39.85730 | 4.21995 | 293 ft | 11 kts | 9° |
| 2026-04-22 21:41 | 39.85818 | 4.22012 | 296 ft | 13 kts | 8° |
| 2026-04-22 21:41 | 39.85907 | 4.22030 | 297 ft | 13 kts | 9° |
| 2026-04-22 21:41 | 39.86002 | 4.22050 | 296 ft | 15 kts | 9° |
| 2026-04-22 21:42 | 39.86113 | 4.22074 | 295 ft | 17 kts | 9° |
| 2026-04-22 21:42 | 39.86187 | 4.22148 | 293 ft | 16 kts | 89° |
| 2026-04-22 21:42 | 39.86227 | 4.22267 | 288 ft | 15 kts | 19° |
| 2026-04-22 21:42 | 39.86339 | 4.22290 | 288 ft | 17 kts | 9° |
| 2026-04-22 21:43 | 39.86457 | 4.22315 | 288 ft | 18 kts | 9° |
| 2026-04-22 21:43 | 39.86575 | 4.22339 | 292 ft | 16 kts | 9° |
| 2026-04-22 21:43 | 39.86626 | 4.22355 | 295 ft | 4 kts | 38° |
| 2026-04-22 21:43 | 39.86625 | 4.22401 | 288 ft | 7 kts | 98° |
| 2026-04-22 21:44 | 39.86620 | 4.22441 | 287 ft | 3 kts | 98° |
| 2026-04-22 21:44 | 39.86620 | 4.22443 | 287 ft | 0 kts | 99° |